createdAt,value
2023-01-22T00:04:21.347Z,200.20
2023-01-22T00:09:28.538Z,205.10
2023-01-22T00:14:30.590Z,191.10
2023-01-22T00:24:39.483Z,214.50
2023-01-22T00:29:41.486Z,206.30
2023-01-22T00:34:50.184Z,195.50
2023-01-22T00:39:55.217Z,192.40
2023-01-22T00:44:59.221Z,172.30
2023-01-22T00:50:01.934Z,180.00
2023-01-22T00:55:07.624Z,162.00
2023-01-22T01:00:10.179Z,158.10
2023-01-22T01:05:14.754Z,159.10
2023-01-22T01:10:19.538Z,167.20
2023-01-22T01:15:29.367Z,170.70
2023-01-22T01:20:37.399Z,165.30
2023-01-22T01:25:41.623Z,162.60
2023-01-22T01:30:44.347Z,152.50
2023-01-22T01:35:48.557Z,147.10
2023-01-22T01:40:53.160Z,138.80
2023-01-22T01:46:00.108Z,131.00
2023-01-22T01:51:37.082Z,126.90
2023-01-22T01:56:45.972Z,124.90
2023-01-22T02:01:52.377Z,123.50
2023-01-22T02:06:54.472Z,119.40
2023-01-22T02:11:59.346Z,113.50
2023-01-22T02:17:14.120Z,110.50
2023-01-22T02:22:27.847Z,99.10
2023-01-22T02:27:29.683Z,103.70
2023-01-22T02:32:34.315Z,105.20
2023-01-22T02:38:19.164Z,105.20
2023-01-22T02:43:44.397Z,92.40
2023-01-22T02:48:52.753Z,87.40
2023-01-22T02:54:01.394Z,86.00
2023-01-22T02:59:04.373Z,96.30
2023-01-22T03:04:11.856Z,92.20
2023-01-22T03:09:19.655Z,91.90
2023-01-22T03:14:43.892Z,86.10
2023-01-22T03:20:04.883Z,83.00
2023-01-22T03:25:07.430Z,81.00
2023-01-22T03:30:18.031Z,79.90
2023-01-22T03:35:27.754Z,78.00
2023-01-22T03:40:46.985Z,80.70
2023-01-22T03:45:49.398Z,75.50
2023-01-22T03:51:00.025Z,79.00
2023-01-22T03:56:12.377Z,83.80
2023-01-22T04:01:26.165Z,77.20
2023-01-22T04:06:37.503Z,80.70
2023-01-22T04:11:39.703Z,69.60
2023-01-22T04:16:49.921Z,78.50
2023-01-22T04:22:20.211Z,62.00
2023-01-22T04:27:24.453Z,58.90
2023-01-22T04:32:28.571Z,48.10
2023-01-22T04:37:38.119Z,56.60
2023-01-22T04:43:07.670Z,57.80
2023-01-22T04:48:31.569Z,56.00
2023-01-22T04:54:01.274Z,63.10
2023-01-22T04:59:27.634Z,62.90
2023-01-22T05:04:46.754Z,61.60
2023-01-22T05:09:59.040Z,63.20
2023-01-22T05:15:07.387Z,55.40
2023-01-22T05:20:25.260Z,59.70
2023-01-22T05:25:38.893Z,50.80
2023-01-22T05:30:48.056Z,43.20
2023-01-22T05:36:15.207Z,49.40
2023-01-22T05:41:28.788Z,44.50
2023-01-22T05:46:40.510Z,41.10
2023-01-22T05:52:29.713Z,40.50
2023-01-22T05:58:27.129Z,38.40
2023-01-22T06:03:31.704Z,34.40
2023-01-22T06:08:39.802Z,35.80
2023-01-22T06:14:12.285Z,35.10
2023-01-22T06:19:29.392Z,32.70
2023-01-22T06:24:37.171Z,30.10
2023-01-22T06:29:44.757Z,36.00
2023-01-22T06:34:57.618Z,34.20
2023-01-22T06:40:02.045Z,36.90
2023-01-22T06:45:17.193Z,36.20
2023-01-22T06:50:58.682Z,34.20
2023-01-22T06:56:04.539Z,32.20
2023-01-22T07:01:12.635Z,37.90
2023-01-22T07:06:24.344Z,39.20
2023-01-22T07:11:39.155Z,33.80
2023-01-22T07:17:01.123Z,34.10
2023-01-22T07:22:09.451Z,35.00
2023-01-22T07:27:12.025Z,34.50
2023-01-22T07:32:19.293Z,37.50
2023-01-22T07:38:01.557Z,34.00
2023-01-22T07:43:18.447Z,35.60
2023-01-22T07:48:45.785Z,33.20
2023-01-22T07:53:50.567Z,32.20
2023-01-22T07:59:00.810Z,35.10
2023-01-22T08:04:10.078Z,36.60
2023-01-22T08:09:54.660Z,31.70
2023-01-22T08:16:05.745Z,32.00
2023-01-22T08:21:26.102Z,33.30
2023-01-22T08:27:52.630Z,33.80
2023-01-22T08:33:07.196Z,39.90
2023-01-22T08:38:26.879Z,39.50
2023-01-22T08:44:21.507Z,39.90
2023-01-22T08:49:53.563Z,34.70
2023-01-22T08:55:39.313Z,31.50
2023-01-22T09:01:13.548Z,33.20
2023-01-22T09:07:14.449Z,34.40
2023-01-22T09:12:36.152Z,38.50
2023-01-22T09:30:25.924Z,44.40
2023-01-22T09:35:32.988Z,43.40
2023-01-22T09:40:50.975Z,47.70
2023-01-22T09:46:44.592Z,36.80
2023-01-22T09:52:05.391Z,47.00
2023-01-22T09:57:30.698Z,41.00
2023-01-22T10:03:10.676Z,48.60
2023-01-22T10:08:41.947Z,44.60
2023-01-22T10:14:11.408Z,46.80
2023-01-22T10:19:47.217Z,48.70
2023-01-22T10:24:53.855Z,51.90
2023-01-22T10:30:18.543Z,79.30
2023-01-22T10:35:25.241Z,92.80
2023-01-22T10:41:04.070Z,80.00
2023-01-22T10:46:26.374Z,71.90
2023-01-22T10:51:38.356Z,56.80
2023-01-22T10:57:45.734Z,48.10
2023-01-22T11:02:57.371Z,45.50
2023-01-22T11:08:43.901Z,47.90
2023-01-22T11:14:01.547Z,47.60
2023-01-22T11:19:46.181Z,46.50
2023-01-22T11:24:53.991Z,43.80
2023-01-22T11:30:27.964Z,45.80
2023-01-22T11:36:17.716Z,46.40
2023-01-22T11:42:00.152Z,46.30
2023-01-22T11:48:27.265Z,47.10
2023-01-22T12:00:28.932Z,47.40
2023-01-22T12:06:22.383Z,48.70
2023-01-22T12:12:52.396Z,48.50
2023-01-22T12:18:39.660Z,52.70
2023-01-22T12:24:19.611Z,53.70
2023-01-22T12:29:37.276Z,54.00
2023-01-22T12:35:11.496Z,49.90
2023-01-22T12:41:23.327Z,64.20
2023-01-22T12:47:25.217Z,57.60
2023-01-22T12:54:16.243Z,61.70
2023-01-22T13:00:11.826Z,57.90
2023-01-22T13:06:24.495Z,62.50
2023-01-22T13:11:37.598Z,57.90
2023-01-22T13:16:55.871Z,59.90
2023-01-22T13:22:00.339Z,56.20
2023-01-22T13:27:25.588Z,58.10
2023-01-22T13:32:40.351Z,59.20
2023-01-22T13:37:56.180Z,60.20
2023-01-22T13:43:48.332Z,57.60
2023-01-22T13:49:27.577Z,66.00
2023-01-22T13:54:36.847Z,59.80
2023-01-22T13:59:59.013Z,60.90
2023-01-22T14:05:24.501Z,63.30
2023-01-22T14:10:27.531Z,60.00
2023-01-22T14:15:39.898Z,57.00
2023-01-22T14:20:44.833Z,63.50
2023-01-22T14:26:13.671Z,61.90
2023-01-22T14:31:23.992Z,60.20
2023-01-22T14:36:37.996Z,64.10
2023-01-22T14:41:40.751Z,66.90
2023-01-22T14:46:58.369Z,63.10
2023-01-22T14:52:27.725Z,68.30
2023-01-22T15:03:00.124Z,64.30
2023-01-22T15:08:20.444Z,63.20
2023-01-22T15:13:33.830Z,72.10
2023-01-22T15:24:50.834Z,67.60
2023-01-22T15:30:37.938Z,72.20
2023-01-22T15:35:56.044Z,77.80
2023-01-22T15:41:19.956Z,72.20
2023-01-22T15:46:46.359Z,75.80
2023-01-22T15:52:01.407Z,78.40
2023-01-22T15:57:06.895Z,79.30
2023-01-22T16:02:43.744Z,78.90
2023-01-22T16:07:54.378Z,77.50
2023-01-22T16:12:59.594Z,72.30
2023-01-22T16:18:07.761Z,87.70
2023-01-22T16:23:10.597Z,100.50
2023-01-22T16:28:25.634Z,107.20
2023-01-22T16:33:44.247Z,90.80
2023-01-22T16:38:55.217Z,95.20
2023-01-22T16:44:09.522Z,96.20
2023-01-22T16:50:08.756Z,87.60
2023-01-22T16:55:39.307Z,89.50
2023-01-22T17:01:41.392Z,91.00
2023-01-22T17:06:57.103Z,88.00
2023-01-22T17:12:21.307Z,85.80
2023-01-22T17:17:32.830Z,90.10
2023-01-22T17:22:44.238Z,76.20
2023-01-22T17:28:18.971Z,104.40
2023-01-22T17:33:41.419Z,104.40
2023-01-22T17:38:54.264Z,110.70
2023-01-22T17:44:09.375Z,114.70
2023-01-22T17:49:23.573Z,114.10
2023-01-22T17:54:33.663Z,103.30
2023-01-22T18:00:09.531Z,107.90
2023-01-22T18:05:35.355Z,98.20
2023-01-22T18:10:43.793Z,93.00
2023-01-22T18:16:01.927Z,99.10
2023-01-22T18:21:06.649Z,94.60
2023-01-22T18:26:22.106Z,98.10
2023-01-22T18:31:29.549Z,94.40
2023-01-22T18:36:36.191Z,76.80
2023-01-22T18:41:51.077Z,100.50
2023-01-22T18:47:53.363Z,106.60
2023-01-22T18:53:34.849Z,121.60
2023-01-22T18:58:40.718Z,209.10
2023-01-22T19:04:29.418Z,178.80
2023-01-22T19:10:07.290Z,166.80
2023-01-22T19:15:11.893Z,138.30
2023-01-22T19:20:17.155Z,121.40
2023-01-22T19:25:19.838Z,100.50
2023-01-22T19:30:32.405Z,90.30
2023-01-22T19:35:45.331Z,82.30
2023-01-22T19:40:47.745Z,86.30
2023-01-22T19:45:55.106Z,85.20
2023-01-22T19:51:44.637Z,76.90
2023-01-22T19:56:53.017Z,77.20
2023-01-22T20:02:29.511Z,69.30
2023-01-22T20:08:02.003Z,65.10
2023-01-22T20:13:10.680Z,69.50
2023-01-22T20:18:13.225Z,56.70
2023-01-22T20:23:43.545Z,55.00
2023-01-22T20:29:00.788Z,58.80
2023-01-22T20:34:05.916Z,53.50
2023-01-22T20:39:38.411Z,54.50
2023-01-22T20:44:45.699Z,51.90
2023-01-22T20:49:51.896Z,52.50
2023-01-22T20:55:27.766Z,46.00
2023-01-22T21:00:32.873Z,51.80
2023-01-22T21:06:14.277Z,48.70
2023-01-22T21:11:32.265Z,61.30
2023-01-22T21:16:43.898Z,60.80
2023-01-22T21:21:49.258Z,57.00
2023-01-22T21:27:31.675Z,61.40
2023-01-22T21:32:36.027Z,60.90
2023-01-22T21:37:37.878Z,52.80
2023-01-22T21:43:04.860Z,53.10
2023-01-22T21:48:19.840Z,57.70
2023-01-22T21:53:21.798Z,55.00
2023-01-22T21:58:43.395Z,39.00
2023-01-22T22:03:45.117Z,37.80
2023-01-22T22:08:59.903Z,40.50
2023-01-22T22:14:24.227Z,43.70
2023-01-22T22:19:41.524Z,37.90
2023-01-22T22:24:48.248Z,39.00
2023-01-22T22:29:58.470Z,37.00
2023-01-22T22:35:25.632Z,40.80
2023-01-22T22:40:38.023Z,37.40
2023-01-22T22:45:40.281Z,39.10
2023-01-22T22:50:53.618Z,34.00
2023-01-22T22:56:05.649Z,28.50
2023-01-22T23:01:23.672Z,30.70
2023-01-22T23:06:41.353Z,33.40
2023-01-22T23:12:36.323Z,27.00
2023-01-22T23:17:41.192Z,35.00
2023-01-22T23:23:42.995Z,34.20
2023-01-22T23:29:20.759Z,33.90
2023-01-22T23:34:33.905Z,35.30
2023-01-22T23:39:52.947Z,38.50
2023-01-22T23:44:58.114Z,35.80
2023-01-22T23:50:17.068Z,36.00
2023-01-22T23:55:32.723Z,35.00
